createdAt,value
2018-09-04T00:01:15.768Z,31.95
2018-09-04T00:03:43.847Z,35.03
2018-09-04T00:06:11.930Z,29.90
2018-09-04T00:08:40.030Z,34.27
2018-09-04T00:11:08.563Z,29.75
2018-09-04T00:13:36.748Z,34.63
2018-09-04T00:16:10.879Z,34.48
2018-09-04T00:18:40.174Z,27.85
2018-09-04T00:21:08.344Z,32.88
2018-09-04T00:23:36.430Z,38.15
2018-09-04T00:26:04.902Z,32.55
2018-09-04T00:28:32.995Z,46.33
2018-09-04T00:31:01.342Z,35.73
2018-09-04T00:33:29.438Z,34.67
2018-09-04T00:35:57.533Z,34.03
2018-09-04T00:38:25.643Z,36.75
2018-09-04T00:40:54.113Z,37.30
2018-09-04T00:43:22.827Z,35.80
2018-09-04T00:45:50.971Z,41.73
2018-09-04T00:48:19.046Z,41.00
2018-09-04T00:50:47.116Z,42.08
2018-09-04T00:53:15.507Z,37.48
2018-09-04T00:55:43.625Z,38.38
2018-09-04T00:58:11.710Z,32.80
2018-09-04T01:00:39.863Z,36.23
2018-09-04T01:03:07.935Z,31.77
2018-09-04T01:05:36.898Z,41.02
2018-09-04T01:08:04.982Z,37.55
2018-09-04T01:10:33.058Z,40.92
2018-09-04T01:13:01.135Z,35.17
2018-09-04T01:15:29.215Z,37.13
2018-09-04T01:17:57.290Z,29.80
2018-09-04T01:20:25.391Z,35.52
2018-09-04T01:22:53.503Z,41.00
2018-09-04T01:25:21.567Z,39.70
2018-09-04T01:27:49.650Z,35.20
2018-09-04T01:30:17.735Z,33.83
2018-09-04T01:32:45.826Z,37.20
2018-09-04T01:35:13.919Z,42.08
2018-09-04T01:37:42.133Z,33.67
2018-09-04T01:40:10.218Z,51.30
2018-09-04T01:42:38.290Z,44.20
2018-09-04T01:45:06.383Z,37.45
2018-09-04T01:47:34.511Z,37.95
2018-09-04T01:50:02.696Z,48.85
2018-09-04T01:52:30.856Z,35.92
2018-09-04T01:54:58.941Z,38.75
2018-09-04T01:57:27.026Z,35.70
2018-09-04T01:59:55.122Z,38.53
2018-09-04T02:02:23.214Z,35.52
2018-09-04T02:04:51.342Z,41.73
2018-09-04T02:07:19.908Z,37.00
2018-09-04T02:09:47.984Z,41.08
2018-09-04T02:12:16.070Z,31.77
2018-09-04T02:14:44.139Z,41.37
2018-09-04T02:17:12.222Z,38.38
2018-09-04T02:19:40.682Z,38.45
2018-09-04T02:22:08.779Z,39.38
2018-09-04T02:24:36.850Z,37.15
2018-09-04T02:27:05.011Z,47.80
2018-09-04T02:29:33.116Z,39.40
2018-09-04T02:32:01.216Z,40.78
2018-09-04T02:34:29.312Z,40.45
2018-09-04T02:36:57.414Z,38.02
2018-09-04T02:39:25.479Z,36.20
2018-09-04T02:41:53.554Z,33.88
2018-09-04T02:44:21.630Z,38.48
2018-09-04T02:46:49.731Z,39.25
2018-09-04T02:49:17.802Z,34.92
2018-09-04T02:51:45.890Z,37.48
2018-09-04T02:54:13.975Z,38.65
2018-09-04T02:56:42.095Z,39.67
2018-09-04T02:59:10.187Z,36.88
2018-09-04T03:01:38.272Z,42.75
2018-09-04T03:04:06.347Z,31.12
2018-09-04T03:06:34.419Z,39.70
2018-09-04T03:09:02.979Z,41.35
2018-09-04T03:11:31.095Z,44.05
2018-09-04T03:13:59.201Z,35.68
2018-09-04T03:16:27.264Z,38.13
2018-09-04T03:18:55.339Z,33.60
2018-09-04T03:21:23.408Z,38.10
2018-09-04T03:23:51.494Z,37.48
2018-09-04T03:26:19.655Z,39.42
2018-09-04T03:28:47.748Z,33.58
2018-09-04T03:31:15.906Z,32.55
2018-09-04T03:33:44.017Z,34.43
2018-09-04T03:36:12.071Z,35.80
2018-09-04T03:38:40.154Z,37.42
2018-09-04T03:41:08.231Z,42.67
2018-09-04T03:43:36.306Z,36.50
2018-09-04T03:46:04.550Z,32.93
2018-09-04T03:48:32.622Z,33.40
2018-09-04T03:51:00.723Z,36.88
2018-09-04T03:53:28.782Z,32.03
2018-09-04T03:55:56.883Z,31.57
2018-09-04T03:58:24.996Z,42.38
2018-09-04T04:00:53.079Z,31.75
2018-09-04T04:03:21.159Z,42.00
2018-09-04T04:05:49.242Z,33.05
2018-09-04T04:08:17.361Z,35.68
2018-09-04T04:10:45.570Z,32.63
2018-09-04T04:13:13.659Z,31.10
2018-09-04T04:15:41.807Z,30.17
2018-09-04T04:18:09.906Z,33.30
2018-09-04T04:20:37.971Z,29.80
2018-09-04T04:23:06.108Z,31.90
2018-09-04T04:25:34.169Z,29.72
2018-09-04T04:28:02.279Z,30.77
2018-09-04T04:30:30.366Z,26.93
2018-09-04T04:32:58.461Z,24.82
2018-09-04T04:35:26.498Z,27.05
2018-09-04T04:37:54.570Z,31.37
2018-09-04T04:40:22.642Z,31.45
2018-09-04T04:42:50.723Z,29.15
2018-09-04T04:45:18.786Z,29.35
2018-09-04T04:47:48.424Z,38.20
2018-09-04T04:50:17.182Z,30.30
2018-09-04T04:52:45.254Z,33.42
2018-09-04T04:55:13.434Z,31.70
2018-09-04T04:57:41.623Z,29.57
2018-09-04T05:00:09.731Z,32.48
2018-09-04T05:02:37.835Z,28.45
2018-09-04T05:05:06.331Z,27.62
2018-09-04T05:07:34.514Z,33.23
2018-09-04T05:10:02.616Z,30.25
2018-09-04T05:12:30.701Z,31.77
2018-09-04T05:14:58.778Z,27.98
2018-09-04T05:17:26.882Z,31.05
2018-09-04T05:19:55.026Z,29.57
2018-09-04T05:22:23.125Z,35.50
2018-09-04T05:24:51.202Z,31.27
2018-09-04T05:27:19.294Z,34.60
2018-09-04T05:29:47.408Z,30.55
2018-09-04T05:32:21.575Z,33.70
2018-09-04T05:34:49.696Z,35.73
2018-09-04T05:37:17.774Z,31.12
2018-09-04T05:39:45.867Z,28.55
2018-09-04T05:42:19.532Z,33.33
2018-09-04T05:44:47.642Z,28.23
2018-09-04T05:47:15.727Z,27.58
2018-09-04T05:49:43.802Z,28.00
2018-09-04T05:52:11.902Z,29.75
2018-09-04T05:54:40.009Z,31.60
2018-09-04T05:57:08.076Z,31.68
2018-09-04T05:59:36.177Z,33.13
2018-09-04T06:02:04.244Z,31.62
2018-09-04T06:04:32.320Z,32.55
2018-09-04T06:07:00.503Z,33.35
2018-09-04T06:09:28.570Z,39.95
2018-09-04T06:11:56.654Z,37.33
2018-09-04T06:14:24.731Z,33.88
2018-09-04T06:16:52.819Z,33.42
2018-09-04T06:19:21.102Z,36.03
2018-09-04T06:21:49.208Z,30.17
2018-09-04T06:24:17.282Z,33.60
2018-09-04T06:26:45.350Z,35.30
2018-09-04T06:29:13.458Z,27.98
2018-09-04T06:31:41.592Z,32.38
2018-09-04T06:34:09.801Z,28.15
2018-09-04T06:36:37.873Z,28.40
2018-09-04T06:39:07.859Z,31.85
2018-09-04T06:41:35.964Z,30.50
2018-09-04T06:44:04.047Z,27.15
2018-09-04T06:46:32.200Z,25.15
2018-09-04T06:49:00.267Z,30.15
2018-09-04T06:51:28.346Z,27.75
2018-09-04T06:53:56.438Z,31.17
2018-09-04T06:56:24.538Z,27.40
2018-09-04T06:58:52.619Z,27.25
2018-09-04T07:01:20.686Z,25.43
2018-09-04T07:03:48.815Z,26.68
2018-09-04T07:06:16.891Z,30.52
2018-09-04T07:08:44.972Z,25.48
2018-09-04T07:11:13.243Z,29.95
2018-09-04T07:13:41.372Z,36.13
2018-09-04T07:16:09.451Z,29.98
2018-09-04T07:18:37.541Z,27.87
2018-09-04T07:21:05.627Z,32.58
2018-09-04T07:23:33.730Z,29.70
2018-09-04T07:26:01.802Z,28.85
2018-09-04T07:28:29.904Z,30.88
2018-09-04T07:30:57.996Z,29.75
2018-09-04T07:33:26.122Z,32.93
2018-09-04T07:35:54.190Z,23.20
2018-09-04T07:38:22.283Z,26.30
2018-09-04T07:40:50.342Z,30.55
2018-09-04T07:43:18.427Z,25.62
2018-09-04T07:45:46.567Z,26.48
2018-09-04T07:48:14.648Z,28.73
2018-09-04T07:50:42.722Z,30.52
2018-09-04T07:53:10.796Z,25.20
2018-09-04T07:55:38.891Z,25.65
2018-09-04T07:58:07.311Z,27.15
2018-09-04T08:00:35.843Z,27.95
2018-09-04T08:03:03.919Z,25.85
2018-09-04T08:05:32.018Z,24.35
2018-09-04T08:08:00.127Z,26.55
2018-09-04T08:10:33.028Z,21.05
2018-09-04T08:13:01.431Z,24.52
2018-09-04T08:15:29.552Z,23.40
2018-09-04T08:17:57.627Z,21.30
2018-09-04T08:20:26.174Z,19.32
2018-09-04T08:22:55.572Z,20.55
2018-09-04T08:25:24.203Z,13.35
2018-09-04T08:27:52.282Z,14.25
2018-09-04T08:30:20.355Z,16.00
2018-09-04T08:32:48.474Z,17.23
2018-09-04T08:35:16.599Z,13.50
2018-09-04T08:37:44.673Z,15.50
2018-09-04T08:40:12.743Z,18.50
2018-09-04T08:42:40.864Z,15.23
2018-09-04T08:45:08.934Z,17.05
2018-09-04T08:47:37.033Z,17.42
2018-09-04T08:50:05.113Z,14.53
2018-09-04T08:52:33.187Z,12.82
2018-09-04T08:55:01.279Z,17.92
2018-09-04T08:57:29.590Z,13.08
2018-09-04T08:59:57.719Z,13.43
2018-09-04T09:02:25.804Z,15.98
2018-09-04T09:04:53.872Z,14.18
2018-09-04T09:07:21.951Z,14.25
2018-09-04T09:09:50.082Z,12.58
2018-09-04T09:12:18.165Z,13.45
2018-09-04T09:14:46.251Z,13.53
2018-09-04T09:17:14.319Z,11.85
2018-09-04T09:19:42.398Z,10.88
2018-09-04T09:22:10.491Z,11.83
2018-09-04T09:24:38.622Z,12.05
2018-09-04T09:27:06.718Z,10.55
2018-09-04T09:29:34.798Z,12.13
2018-09-04T09:32:02.868Z,13.10
2018-09-04T09:34:30.927Z,10.08
2018-09-04T09:36:59.064Z,15.78
2018-09-04T09:39:27.099Z,10.98
2018-09-04T09:41:55.174Z,10.05
2018-09-04T09:44:23.254Z,12.03
2018-09-04T09:46:53.443Z,10.32
2018-09-04T09:49:21.567Z,12.93
2018-09-04T09:51:49.665Z,10.05
2018-09-04T09:54:17.761Z,13.58
2018-09-04T09:56:45.943Z,11.50
2018-09-04T09:59:13.930Z,14.05
2018-09-04T10:02:45.111Z,16.40
2018-09-04T10:05:13.203Z,11.20
2018-09-04T10:07:41.398Z,13.32
2018-09-04T10:10:09.417Z,14.03
2018-09-04T10:12:37.492Z,12.60
2018-09-04T10:15:05.858Z,13.53
2018-09-04T10:17:33.946Z,14.43
2018-09-04T10:20:02.156Z,19.17
2018-09-04T10:22:30.238Z,12.93
2018-09-04T10:24:58.331Z,15.43
2018-09-04T10:27:26.407Z,16.42
2018-09-04T10:29:54.482Z,14.33
2018-09-04T10:32:22.554Z,15.45
2018-09-04T10:34:50.682Z,16.00
2018-09-04T10:37:18.774Z,14.87
2018-09-04T10:39:52.419Z,16.62
2018-09-04T10:42:26.081Z,12.03
2018-09-04T10:44:54.146Z,12.85
2018-09-04T10:47:22.235Z,15.30
2018-09-04T10:49:50.318Z,15.88
2018-09-04T10:52:18.400Z,13.55
2018-09-04T10:54:46.486Z,15.95
2018-09-04T10:57:14.572Z,13.10
2018-09-04T10:59:42.677Z,14.00
2018-09-04T11:02:10.766Z,18.65
2018-09-04T11:04:38.850Z,15.03
2018-09-04T11:07:07.245Z,18.25
2018-09-04T11:09:35.609Z,15.72
2018-09-04T11:12:03.627Z,14.15
2018-09-04T11:14:31.735Z,17.87
2018-09-04T11:16:59.806Z,19.05
2018-09-04T11:19:27.890Z,17.02
2018-09-04T11:21:55.970Z,16.40
2018-09-04T11:24:24.047Z,14.87
2018-09-04T11:26:52.151Z,16.30
2018-09-04T11:29:20.229Z,15.65
2018-09-04T11:31:48.351Z,14.58
2018-09-04T11:34:16.652Z,15.78
2018-09-04T11:36:44.738Z,14.73
2018-09-04T11:39:12.839Z,16.42
2018-09-04T11:41:40.984Z,16.77
2018-09-04T11:44:09.055Z,18.77
2018-09-04T11:46:37.138Z,15.58
2018-09-04T11:49:05.212Z,17.92
2018-09-04T11:51:33.306Z,14.45
2018-09-04T11:54:01.390Z,16.10
2018-09-04T11:56:29.468Z,14.03
2018-09-04T11:58:57.551Z,16.10
2018-09-04T12:01:28.876Z,13.10
2018-09-04T12:03:57.023Z,16.57
2018-09-04T12:06:25.121Z,17.70
2018-09-04T12:08:53.202Z,12.40
2018-09-04T12:11:21.301Z,19.07
2018-09-04T12:13:49.384Z,14.93
2018-09-04T12:16:17.443Z,14.73
2018-09-04T12:18:45.570Z,15.93
2018-09-04T12:21:13.692Z,15.13
2018-09-04T12:23:41.845Z,15.23
2018-09-04T12:26:11.028Z,14.80
2018-09-04T12:28:39.094Z,18.85
2018-09-04T12:31:07.698Z,15.72
2018-09-04T12:33:35.778Z,15.45
2018-09-04T12:36:03.956Z,18.07
2018-09-04T12:38:34.359Z,17.55
2018-09-04T12:41:11.759Z,15.70
2018-09-04T12:43:39.867Z,14.15
2018-09-04T12:46:07.960Z,16.25
2018-09-04T12:48:36.125Z,16.12
2018-09-04T12:51:04.355Z,17.75
2018-09-04T12:53:33.143Z,15.98
2018-09-04T12:56:01.308Z,15.75
2018-09-04T12:58:29.394Z,16.62
2018-09-04T13:00:58.059Z,13.13
2018-09-04T13:03:27.359Z,14.53
2018-09-04T13:05:55.443Z,11.00
2018-09-04T13:08:25.008Z,18.47
2018-09-04T13:10:53.110Z,18.23
2018-09-04T13:13:21.198Z,20.02
2018-09-04T13:15:51.304Z,18.40
2018-09-04T13:18:19.395Z,18.10
2018-09-04T13:20:47.490Z,17.77
2018-09-04T13:23:15.598Z,19.67
2018-09-04T13:25:43.690Z,17.48
2018-09-04T13:28:11.811Z,17.92
2018-09-04T13:30:40.051Z,17.73
2018-09-04T13:33:08.372Z,16.87
2018-09-04T13:35:36.912Z,21.60
2018-09-04T13:38:05.223Z,20.27
2018-09-04T13:40:33.360Z,18.32
2018-09-04T13:43:01.422Z,22.93
2018-09-04T13:45:29.536Z,16.17
2018-09-04T13:47:58.394Z,19.12
2018-09-04T13:50:26.470Z,18.82
2018-09-04T13:52:54.620Z,18.65
2018-09-04T13:55:22.783Z,21.62
2018-09-04T13:57:50.903Z,24.57
2018-09-04T14:00:19.499Z,20.35
2018-09-04T14:02:47.566Z,17.37
2018-09-04T14:05:15.625Z,18.40
2018-09-04T14:07:44.459Z,17.48
2018-09-04T14:10:12.583Z,18.77
2018-09-04T14:12:40.654Z,20.15
2018-09-04T14:15:09.035Z,16.37
2018-09-04T14:17:37.117Z,19.48
2018-09-04T14:20:05.470Z,24.95
2018-09-04T14:22:33.578Z,19.15
2018-09-04T14:25:01.615Z,22.25
2018-09-04T14:27:29.797Z,29.57
2018-09-04T14:30:15.536Z,30.88
2018-09-04T14:32:25.967Z,34.35
2018-09-04T14:34:54.055Z,29.50
2018-09-04T14:37:22.145Z,35.23
2018-09-04T14:39:55.592Z,30.68
2018-09-04T14:42:18.487Z,29.42
2018-09-04T14:44:46.605Z,35.80
2018-09-04T14:47:14.675Z,32.73
2018-09-04T14:49:42.774Z,38.70
2018-09-04T14:52:10.883Z,29.90
2018-09-04T14:54:39.192Z,27.58
2018-09-04T14:57:07.269Z,28.42
2018-09-04T14:59:35.360Z,30.52
2018-09-04T15:02:03.457Z,25.20
2018-09-04T15:04:31.550Z,29.02
2018-09-04T15:06:59.634Z,22.27
2018-09-04T15:09:27.711Z,25.57
2018-09-04T15:11:55.813Z,23.07
2018-09-04T15:14:23.890Z,24.70
2018-09-04T15:16:52.980Z,26.60
2018-09-04T15:19:21.109Z,22.65
2018-09-04T15:21:49.187Z,26.85
2018-09-04T15:24:17.252Z,26.12
2018-09-04T15:26:45.319Z,23.75
2018-09-04T15:29:13.383Z,20.50
2018-09-04T15:31:41.513Z,17.82
2018-09-04T15:34:09.554Z,17.30
2018-09-04T15:36:37.647Z,23.05
2018-09-04T15:39:06.584Z,23.25
2018-09-04T15:41:34.707Z,24.98
2018-09-04T15:44:02.815Z,20.27
2018-09-04T15:46:31.151Z,21.15
2018-09-04T15:49:04.695Z,20.15
2018-09-04T15:51:32.787Z,20.97
2018-09-04T15:54:00.865Z,18.23
2018-09-04T15:56:28.931Z,21.85
2018-09-04T15:58:57.084Z,18.87
2018-09-04T16:01:25.155Z,23.55
2018-09-04T16:03:53.231Z,23.90
2018-09-04T16:06:21.384Z,15.88
2018-09-04T16:08:49.511Z,15.93
2018-09-04T16:11:17.619Z,15.88
2018-09-04T16:13:45.687Z,21.82
2018-09-04T16:16:13.894Z,20.45
2018-09-04T16:18:41.984Z,16.62
2018-09-04T16:21:10.070Z,20.82
2018-09-04T16:23:38.169Z,24.50
2018-09-04T16:26:06.223Z,21.55
2018-09-04T16:28:34.307Z,24.32
2018-09-04T16:31:02.388Z,22.07
2018-09-04T16:33:30.463Z,23.10
2018-09-04T16:35:58.603Z,24.00
2018-09-04T16:38:26.691Z,23.22
2018-09-04T16:40:54.795Z,26.65
2018-09-04T16:43:22.988Z,23.62
2018-09-04T16:45:51.106Z,20.15
2018-09-04T16:48:19.199Z,26.02
2018-09-04T16:50:47.282Z,19.05
2018-09-04T16:53:15.365Z,22.15
2018-09-04T16:55:43.497Z,17.07
2018-09-04T16:58:11.582Z,20.17
2018-09-04T17:00:39.681Z,16.15
2018-09-04T17:03:07.774Z,20.70
2018-09-04T17:05:35.851Z,17.67
2018-09-04T17:08:03.919Z,15.63
2018-09-04T17:10:32.127Z,16.02
2018-09-04T17:13:00.239Z,15.60
2018-09-04T17:15:28.299Z,20.08
2018-09-04T17:17:56.463Z,15.18
2018-09-04T17:20:24.551Z,15.38
2018-09-04T17:22:52.675Z,20.90
2018-09-04T17:25:20.840Z,15.80
2018-09-04T17:27:48.934Z,18.20
2018-09-04T17:30:17.019Z,15.43
2018-09-04T17:32:45.087Z,17.02
2018-09-04T17:35:13.251Z,16.87
2018-09-04T17:37:41.616Z,17.52
2018-09-04T17:40:09.748Z,18.98
2018-09-04T17:42:37.811Z,20.77
2018-09-04T17:45:05.904Z,15.50
2018-09-04T17:47:34.012Z,16.95
2018-09-04T17:50:02.154Z,16.87
2018-09-04T17:52:31.262Z,17.20
2018-09-04T17:54:59.473Z,16.02
2018-09-04T17:57:27.549Z,15.95
2018-09-04T17:59:55.638Z,13.78
2018-09-04T18:02:23.735Z,17.67
2018-09-04T18:04:52.255Z,20.30
2018-09-04T18:07:20.408Z,15.85
2018-09-04T18:09:48.510Z,18.92
2018-09-04T18:12:16.617Z,16.82
2018-09-04T18:14:44.710Z,18.48
2018-09-04T18:17:12.935Z,19.73
2018-09-04T18:19:41.037Z,22.22
2018-09-04T18:22:09.124Z,24.40
2018-09-04T18:24:37.207Z,32.80
2018-09-04T18:27:05.282Z,22.82
2018-09-04T18:29:33.591Z,24.32
2018-09-04T18:32:01.780Z,24.00
2018-09-04T18:34:29.947Z,27.22
2018-09-04T18:36:58.314Z,27.90
2018-09-04T18:39:26.386Z,27.35
2018-09-04T18:41:54.459Z,27.55
2018-09-04T18:44:22.560Z,28.87
2018-09-04T18:46:50.639Z,30.20
2018-09-04T18:49:18.809Z,31.17
2018-09-04T18:51:46.837Z,37.05
2018-09-04T18:54:14.906Z,39.40
2018-09-04T18:56:42.974Z,35.60
2018-09-04T18:59:11.095Z,38.40
2018-09-04T19:01:39.155Z,35.43
2018-09-04T19:04:07.222Z,35.23
2018-09-04T19:06:35.506Z,34.88
2018-09-04T19:09:04.880Z,41.20
2018-09-04T19:11:32.965Z,45.90
2018-09-04T19:14:01.050Z,38.17
2018-09-04T19:16:29.146Z,41.50
2018-09-04T19:18:57.219Z,37.95
2018-09-04T19:21:25.422Z,38.17
2018-09-04T19:23:53.522Z,37.75
2018-09-04T19:26:21.613Z,35.35
2018-09-04T19:28:49.707Z,40.90
2018-09-04T19:31:17.812Z,42.93
2018-09-04T19:33:45.880Z,39.95
2018-09-04T19:36:13.983Z,40.80
2018-09-04T19:38:42.132Z,38.53
2018-09-04T19:41:10.282Z,37.60
2018-09-04T19:43:38.387Z,37.65
2018-09-04T19:46:06.494Z,34.58
2018-09-04T19:48:34.570Z,37.53
2018-09-04T19:51:02.670Z,37.80
2018-09-04T19:53:30.746Z,36.93
2018-09-04T19:55:58.863Z,42.83
2018-09-04T19:58:26.999Z,35.05
2018-09-04T20:00:55.127Z,33.78
2018-09-04T20:03:23.122Z,35.58
2018-09-04T20:05:51.247Z,34.35
2018-09-04T20:08:19.624Z,38.53
2018-09-04T20:10:47.707Z,36.77
2018-09-04T20:13:15.847Z,36.65
2018-09-04T20:15:43.847Z,39.98
2018-09-04T20:18:11.922Z,38.25
2018-09-04T20:20:40.060Z,40.33
2018-09-04T20:23:08.156Z,36.95
2018-09-04T20:25:36.314Z,39.03
2018-09-04T20:28:04.620Z,38.33
2018-09-04T20:30:32.794Z,39.18
2018-09-04T20:33:00.856Z,44.05
2018-09-04T20:35:28.962Z,36.98
2018-09-04T20:37:57.032Z,39.92
2018-09-04T20:40:25.234Z,39.95
2018-09-04T20:42:53.365Z,38.38
2018-09-04T20:45:21.419Z,39.45
2018-09-04T20:47:49.504Z,38.08
2018-09-04T20:50:17.603Z,43.28
2018-09-04T20:52:45.687Z,36.73
2018-09-04T20:55:13.791Z,37.40
2018-09-04T20:57:41.826Z,38.85
2018-09-04T21:00:23.215Z,50.92
2018-09-04T21:03:02.891Z,36.35
2018-09-04T21:05:42.602Z,38.80
2018-09-04T21:08:24.853Z,43.10
2018-09-04T21:10:53.681Z,38.58
2018-09-04T21:13:21.781Z,38.20
2018-09-04T21:15:49.909Z,37.58
2018-09-04T21:18:17.991Z,38.30
2018-09-04T21:20:46.157Z,38.98
2018-09-04T21:23:14.246Z,37.13
2018-09-04T21:25:42.406Z,37.78
2018-09-04T21:28:10.474Z,33.83
2018-09-04T21:30:38.580Z,39.90
2018-09-04T21:33:06.673Z,37.00
2018-09-04T21:35:34.763Z,38.35
2018-09-04T21:38:02.847Z,47.03
2018-09-04T21:40:30.927Z,40.35
2018-09-04T21:42:59.014Z,39.30
2018-09-04T21:45:27.118Z,42.10
2018-09-04T21:47:55.191Z,35.88
2018-09-04T21:50:23.317Z,34.08
2018-09-04T21:52:51.388Z,37.85
2018-09-04T21:55:19.511Z,36.73
2018-09-04T21:57:47.555Z,35.75
2018-09-04T22:00:19.894Z,37.05
2018-09-04T22:02:47.988Z,32.95
2018-09-04T22:05:16.060Z,36.35
2018-09-04T22:07:44.231Z,40.92
2018-09-04T22:10:12.304Z,38.90
2018-09-04T22:12:40.414Z,49.50
2018-09-04T22:15:08.485Z,41.08
2018-09-04T22:17:37.371Z,47.23
2018-09-04T22:20:05.477Z,49.38
2018-09-04T22:22:33.578Z,36.63
2018-09-04T22:25:01.667Z,39.35
2018-09-04T22:27:30.058Z,35.75
2018-09-04T22:29:58.131Z,33.38
2018-09-04T22:32:26.225Z,37.88
2018-09-04T22:34:54.313Z,35.20
2018-09-04T22:37:22.379Z,32.75
2018-09-04T22:39:50.830Z,34.63
2018-09-04T22:42:18.900Z,35.15
2018-09-04T22:44:46.996Z,34.50
2018-09-04T22:47:15.090Z,35.08
2018-09-04T22:49:48.807Z,33.63
2018-09-04T22:52:16.919Z,34.33
2018-09-04T22:54:44.986Z,45.10
2018-09-04T22:57:13.079Z,33.65
2018-09-04T22:59:41.166Z,42.67
2018-09-04T23:02:09.252Z,40.35
2018-09-04T23:04:37.667Z,31.85
2018-09-04T23:07:05.773Z,31.40
2018-09-04T23:09:33.930Z,34.53
2018-09-04T23:12:02.025Z,27.93
2018-09-04T23:14:30.136Z,30.95
2018-09-04T23:16:58.499Z,31.50
2018-09-04T23:19:26.579Z,29.12
2018-09-04T23:21:54.650Z,33.75
2018-09-04T23:24:22.740Z,30.50
2018-09-04T23:26:50.889Z,27.00
2018-09-04T23:29:19.303Z,31.20
2018-09-04T23:31:47.454Z,37.63
2018-09-04T23:34:15.527Z,31.20
2018-09-04T23:36:43.630Z,32.48
2018-09-04T23:39:11.698Z,33.80
2018-09-04T23:41:40.096Z,30.43
2018-09-04T23:44:08.184Z,31.42
2018-09-04T23:46:36.291Z,31.23
2018-09-04T23:49:04.367Z,33.92
2018-09-04T23:51:32.447Z,30.43
2018-09-04T23:54:00.829Z,28.67
2018-09-04T23:56:28.947Z,32.60
2018-09-04T23:58:57.028Z,31.85
